sensor_id;sensor_type;location;lat;lon;timestamp;P1;durP1;ratioP1;P2;durP2;ratioP2
75012;SDS011;63567;49.956;20.130;2023-03-31T00:00:08;9.05;;;5.15;;
75012;SDS011;63567;49.956;20.130;2023-03-31T00:02:36;8.68;;;5.53;;
75012;SDS011;63567;49.956;20.130;2023-03-31T00:05:05;9.15;;;6.47;;
75012;SDS011;63567;49.956;20.130;2023-03-31T00:07:31;8.73;;;6.03;;
75012;SDS011;63567;49.956;20.130;2023-03-31T00:09:57;8.40;;;6.27;;
75012;SDS011;63567;49.956;20.130;2023-03-31T00:12:25;10.25;;;5.93;;
75012;SDS011;63567;49.956;20.130;2023-03-31T00:14:51;10.18;;;6.68;;
75012;SDS011;63567;49.956;20.130;2023-03-31T00:17:16;7.93;;;5.95;;
75012;SDS011;63567;49.956;20.130;2023-03-31T00:19:42;11.55;;;6.47;;
75012;SDS011;63567;49.956;20.130;2023-03-31T00:22:07;8.50;;;6.20;;
75012;SDS011;63567;49.956;20.130;2023-03-31T00:24:33;8.88;;;6.22;;
75012;SDS011;63567;49.956;20.130;2023-03-31T00:27:00;10.32;;;7.10;;
75012;SDS011;63567;49.956;20.130;2023-03-31T00:29:26;10.55;;;6.55;;
75012;SDS011;63567;49.956;20.130;2023-03-31T00:31:52;8.18;;;6.18;;
75012;SDS011;63567;49.956;20.130;2023-03-31T00:34:20;8.68;;;5.90;;
75012;SDS011;63567;49.956;20.130;2023-03-31T00:36:45;9.98;;;6.68;;
75012;SDS011;63567;49.956;20.130;2023-03-31T00:39:14;10.10;;;6.78;;
75012;SDS011;63567;49.956;20.130;2023-03-31T00:41:42;9.65;;;6.55;;
75012;SDS011;63567;49.956;20.130;2023-03-31T00:49:34;8.50;;;5.53;;
75012;SDS011;63567;49.956;20.130;2023-03-31T00:52:11;9.95;;;6.78;;
75012;SDS011;63567;49.956;20.130;2023-03-31T00:54:42;9.55;;;6.53;;
75012;SDS011;63567;49.956;20.130;2023-03-31T00:57:10;9.68;;;6.90;;
75012;SDS011;63567;49.956;20.130;2023-03-31T00:59:41;8.93;;;6.30;;
75012;SDS011;63567;49.956;20.130;2023-03-31T01:02:11;9.38;;;6.60;;
75012;SDS011;63567;49.956;20.130;2023-03-31T01:04:40;10.40;;;7.00;;
75012;SDS011;63567;49.956;20.130;2023-03-31T01:09:42;11.45;;;7.32;;
75012;SDS011;63567;49.956;20.130;2023-03-31T01:12:11;9.30;;;6.22;;
75012;SDS011;63567;49.956;20.130;2023-03-31T01:14:39;9.38;;;6.32;;
75012;SDS011;63567;49.956;20.130;2023-03-31T01:17:04;8.45;;;6.55;;
75012;SDS011;63567;49.956;20.130;2023-03-31T01:27:37;10.70;;;6.95;;
75012;SDS011;63567;49.956;20.130;2023-03-31T01:31:01;9.70;;;7.15;;
75012;SDS011;63567;49.956;20.130;2023-03-31T01:44:13;10.45;;;6.82;;
75012;SDS011;63567;49.956;20.130;2023-03-31T02:03:08;6.68;;;5.32;;
75012;SDS011;63567;49.956;20.130;2023-03-31T02:05:37;7.07;;;5.00;;
75012;SDS011;63567;49.956;20.130;2023-03-31T02:13:21;9.77;;;5.32;;
75012;SDS011;63567;49.956;20.130;2023-03-31T02:15:50;7.85;;;5.35;;
75012;SDS011;63567;49.956;20.130;2023-03-31T02:18:22;10.00;;;5.40;;
75012;SDS011;63567;49.956;20.130;2023-03-31T02:20:54;8.07;;;5.45;;
75012;SDS011;63567;49.956;20.130;2023-03-31T02:23:23;7.13;;;5.15;;
75012;SDS011;63567;49.956;20.130;2023-03-31T02:25:55;7.18;;;4.80;;
75012;SDS011;63567;49.956;20.130;2023-03-31T02:28:26;8.15;;;5.22;;
75012;SDS011;63567;49.956;20.130;2023-03-31T02:30:57;7.80;;;5.18;;
75012;SDS011;63567;49.956;20.130;2023-03-31T02:33:32;6.75;;;4.80;;
75012;SDS011;63567;49.956;20.130;2023-03-31T02:35:58;8.45;;;4.70;;
75012;SDS011;63567;49.956;20.130;2023-03-31T02:38:24;7.30;;;4.60;;
75012;SDS011;63567;49.956;20.130;2023-03-31T02:40:51;7.28;;;4.43;;
75012;SDS011;63567;49.956;20.130;2023-03-31T02:43:16;6.75;;;4.57;;
75012;SDS011;63567;49.956;20.130;2023-03-31T02:48:17;7.80;;;4.68;;
75012;SDS011;63567;49.956;20.130;2023-03-31T02:58:46;6.53;;;4.30;;
75012;SDS011;63567;49.956;20.130;2023-03-31T03:04:10;5.63;;;3.92;;
75012;SDS011;63567;49.956;20.130;2023-03-31T03:07:10;4.90;;;3.38;;
75012;SDS011;63567;49.956;20.130;2023-03-31T03:12:35;5.95;;;3.58;;
75012;SDS011;63567;49.956;20.130;2023-03-31T03:17:43;5.60;;;3.55;;
75012;SDS011;63567;49.956;20.130;2023-03-31T03:20:10;5.22;;;3.10;;
75012;SDS011;63567;49.956;20.130;2023-03-31T03:22:38;5.63;;;3.53;;
75012;SDS011;63567;49.956;20.130;2023-03-31T03:25:05;4.70;;;2.67;;
75012;SDS011;63567;49.956;20.130;2023-03-31T03:27:33;5.28;;;3.40;;
75012;SDS011;63567;49.956;20.130;2023-03-31T03:30:00;5.85;;;3.75;;
75012;SDS011;63567;49.956;20.130;2023-03-31T03:32:27;6.60;;;3.35;;
75012;SDS011;63567;49.956;20.130;2023-03-31T03:34:52;5.80;;;3.55;;
75012;SDS011;63567;49.956;20.130;2023-03-31T03:37:18;4.80;;;3.17;;
75012;SDS011;63567;49.956;20.130;2023-03-31T03:39:43;4.68;;;3.25;;
75012;SDS011;63567;49.956;20.130;2023-03-31T03:42:09;5.90;;;2.83;;
75012;SDS011;63567;49.956;20.130;2023-03-31T03:44:34;4.87;;;3.20;;
75012;SDS011;63567;49.956;20.130;2023-03-31T03:46:59;5.25;;;3.40;;
75012;SDS011;63567;49.956;20.130;2023-03-31T03:49:25;4.63;;;3.37;;
75012;SDS011;63567;49.956;20.130;2023-03-31T03:51:50;4.43;;;3.30;;
75012;SDS011;63567;49.956;20.130;2023-03-31T03:54:15;6.07;;;3.63;;
75012;SDS011;63567;49.956;20.130;2023-03-31T03:56:41;7.57;;;3.97;;
75012;SDS011;63567;49.956;20.130;2023-03-31T03:59:06;6.60;;;4.27;;
75012;SDS011;63567;49.956;20.130;2023-03-31T04:01:31;6.57;;;3.83;;
75012;SDS011;63567;49.956;20.130;2023-03-31T04:03:57;6.63;;;4.23;;
75012;SDS011;63567;49.956;20.130;2023-03-31T04:06:22;4.90;;;4.00;;
75012;SDS011;63567;49.956;20.130;2023-03-31T04:08:48;5.55;;;3.70;;
75012;SDS011;63567;49.956;20.130;2023-03-31T04:11:14;6.13;;;4.30;;
75012;SDS011;63567;49.956;20.130;2023-03-31T04:13:41;5.35;;;3.83;;
75012;SDS011;63567;49.956;20.130;2023-03-31T04:16:07;6.68;;;4.50;;
75012;SDS011;63567;49.956;20.130;2023-03-31T04:18:33;6.03;;;4.03;;
75012;SDS011;63567;49.956;20.130;2023-03-31T04:21:01;6.90;;;4.10;;
75012;SDS011;63567;49.956;20.130;2023-03-31T04:23:34;5.50;;;3.88;;
75012;SDS011;63567;49.956;20.130;2023-03-31T04:26:11;5.28;;;3.80;;
75012;SDS011;63567;49.956;20.130;2023-03-31T04:28:38;6.20;;;4.15;;
75012;SDS011;63567;49.956;20.130;2023-03-31T04:31:07;6.55;;;4.35;;
75012;SDS011;63567;49.956;20.130;2023-03-31T04:33:34;6.30;;;4.50;;
75012;SDS011;63567;49.956;20.130;2023-03-31T04:36:03;7.03;;;4.47;;
75012;SDS011;63567;49.956;20.130;2023-03-31T04:38:31;6.18;;;4.65;;
75012;SDS011;63567;49.956;20.130;2023-03-31T04:40:57;7.35;;;4.40;;
75012;SDS011;63567;49.956;20.130;2023-03-31T04:43:23;5.43;;;3.97;;
75012;SDS011;63567;49.956;20.130;2023-03-31T04:45:48;6.32;;;4.10;;
75012;SDS011;63567;49.956;20.130;2023-03-31T04:48:14;5.90;;;3.90;;
75012;SDS011;63567;49.956;20.130;2023-03-31T04:50:39;5.17;;;3.57;;
75012;SDS011;63567;49.956;20.130;2023-03-31T04:53:05;6.00;;;3.70;;
75012;SDS011;63567;49.956;20.130;2023-03-31T04:55:31;5.13;;;3.65;;
75012;SDS011;63567;49.956;20.130;2023-03-31T04:57:57;6.13;;;3.60;;
75012;SDS011;63567;49.956;20.130;2023-03-31T05:00:23;4.68;;;3.40;;
75012;SDS011;63567;49.956;20.130;2023-03-31T05:02:49;5.10;;;3.50;;
75012;SDS011;63567;49.956;20.130;2023-03-31T05:05:15;4.68;;;3.15;;
75012;SDS011;63567;49.956;20.130;2023-03-31T05:07:41;5.60;;;3.83;;
75012;SDS011;63567;49.956;20.130;2023-03-31T05:10:06;5.15;;;3.35;;
75012;SDS011;63567;49.956;20.130;2023-03-31T05:12:35;6.13;;;3.47;;
75012;SDS011;63567;49.956;20.130;2023-03-31T05:15:02;5.82;;;2.88;;
75012;SDS011;63567;49.956;20.130;2023-03-31T05:17:31;5.57;;;3.25;;
75012;SDS011;63567;49.956;20.130;2023-03-31T05:19:57;4.93;;;3.13;;
75012;SDS011;63567;49.956;20.130;2023-03-31T05:22:23;8.23;;;4.13;;
75012;SDS011;63567;49.956;20.130;2023-03-31T05:24:49;4.00;;;2.40;;
75012;SDS011;63567;49.956;20.130;2023-03-31T05:27:15;5.15;;;2.90;;
75012;SDS011;63567;49.956;20.130;2023-03-31T05:29:40;4.55;;;2.70;;
75012;SDS011;63567;49.956;20.130;2023-03-31T05:32:06;3.40;;;2.60;;
75012;SDS011;63567;49.956;20.130;2023-03-31T05:34:31;4.40;;;2.42;;
75012;SDS011;63567;49.956;20.130;2023-03-31T05:36:57;3.78;;;2.53;;
75012;SDS011;63567;49.956;20.130;2023-03-31T05:39:22;4.95;;;3.00;;
75012;SDS011;63567;49.956;20.130;2023-03-31T05:41:48;4.07;;;2.35;;
75012;SDS011;63567;49.956;20.130;2023-03-31T05:44:13;4.18;;;2.70;;
75012;SDS011;63567;49.956;20.130;2023-03-31T05:46:39;5.88;;;2.70;;
75012;SDS011;63567;49.956;20.130;2023-03-31T05:49:05;3.95;;;2.40;;
75012;SDS011;63567;49.956;20.130;2023-03-31T05:51:31;3.88;;;2.50;;
75012;SDS011;63567;49.956;20.130;2023-03-31T05:53:56;3.88;;;2.28;;
75012;SDS011;63567;49.956;20.130;2023-03-31T05:56:21;5.00;;;2.50;;
75012;SDS011;63567;49.956;20.130;2023-03-31T05:58:47;3.78;;;2.60;;
75012;SDS011;63567;49.956;20.130;2023-03-31T06:01:14;4.50;;;2.33;;
75012;SDS011;63567;49.956;20.130;2023-03-31T06:03:44;4.55;;;2.42;;
75012;SDS011;63567;49.956;20.130;2023-03-31T06:06:10;3.60;;;2.30;;
75012;SDS011;63567;49.956;20.130;2023-03-31T06:11:10;3.90;;;2.10;;
75012;SDS011;63567;49.956;20.130;2023-03-31T06:13:37;3.72;;;2.47;;
75012;SDS011;63567;49.956;20.130;2023-03-31T06:16:03;3.13;;;2.40;;
75012;SDS011;63567;49.956;20.130;2023-03-31T06:18:31;3.35;;;2.30;;
75012;SDS011;63567;49.956;20.130;2023-03-31T06:20:58;3.80;;;1.98;;
75012;SDS011;63567;49.956;20.130;2023-03-31T06:23:24;4.40;;;2.20;;
75012;SDS011;63567;49.956;20.130;2023-03-31T06:25:50;4.00;;;2.22;;
75012;SDS011;63567;49.956;20.130;2023-03-31T06:28:16;3.95;;;2.08;;
75012;SDS011;63567;49.956;20.130;2023-03-31T06:30:42;4.53;;;2.17;;
75012;SDS011;63567;49.956;20.130;2023-03-31T06:33:07;4.13;;;2.00;;
75012;SDS011;63567;49.956;20.130;2023-03-31T06:35:36;4.78;;;2.20;;
75012;SDS011;63567;49.956;20.130;2023-03-31T06:38:02;3.28;;;2.10;;
75012;SDS011;63567;49.956;20.130;2023-03-31T06:40:28;4.63;;;2.40;;
75012;SDS011;63567;49.956;20.130;2023-03-31T06:42:53;4.25;;;2.17;;
75012;SDS011;63567;49.956;20.130;2023-03-31T06:45:19;3.70;;;2.70;;
75012;SDS011;63567;49.956;20.130;2023-03-31T06:47:44;3.58;;;2.42;;
75012;SDS011;63567;49.956;20.130;2023-03-31T06:50:10;4.32;;;2.50;;
75012;SDS011;63567;49.956;20.130;2023-03-31T06:52:35;4.17;;;2.83;;
75012;SDS011;63567;49.956;20.130;2023-03-31T06:55:01;3.65;;;2.20;;
75012;SDS011;63567;49.956;20.130;2023-03-31T06:57:27;3.80;;;2.03;;
75012;SDS011;63567;49.956;20.130;2023-03-31T06:59:53;2.88;;;1.58;;
75012;SDS011;63567;49.956;20.130;2023-03-31T07:02:19;3.70;;;2.00;;
75012;SDS011;63567;49.956;20.130;2023-03-31T07:04:45;3.53;;;2.10;;
75012;SDS011;63567;49.956;20.130;2023-03-31T07:07:11;3.88;;;2.10;;
75012;SDS011;63567;49.956;20.130;2023-03-31T07:09:36;3.53;;;2.00;;
75012;SDS011;63567;49.956;20.130;2023-03-31T07:12:02;3.83;;;1.80;;
75012;SDS011;63567;49.956;20.130;2023-03-31T07:14:29;4.03;;;2.50;;
75012;SDS011;63567;49.956;20.130;2023-03-31T07:16:57;4.05;;;2.22;;
75012;SDS011;63567;49.956;20.130;2023-03-31T07:19:23;3.35;;;2.00;;
75012;SDS011;63567;49.956;20.130;2023-03-31T07:21:49;3.08;;;1.92;;
75012;SDS011;63567;49.956;20.130;2023-03-31T07:24:15;3.40;;;2.20;;
75012;SDS011;63567;49.956;20.130;2023-03-31T07:26:41;2.90;;;2.60;;
75012;SDS011;63567;49.956;20.130;2023-03-31T07:29:06;3.07;;;1.80;;
75012;SDS011;63567;49.956;20.130;2023-03-31T07:31:32;4.40;;;2.45;;
75012;SDS011;63567;49.956;20.130;2023-03-31T07:33:57;5.00;;;2.53;;
75012;SDS011;63567;49.956;20.130;2023-03-31T07:36:22;3.67;;;2.00;;
75012;SDS011;63567;49.956;20.130;2023-03-31T07:38:48;4.07;;;2.10;;
75012;SDS011;63567;49.956;20.130;2023-03-31T07:41:17;3.83;;;1.98;;
75012;SDS011;63567;49.956;20.130;2023-03-31T07:43:44;2.95;;;2.00;;
75012;SDS011;63567;49.956;20.130;2023-03-31T07:46:13;5.63;;;2.22;;
75012;SDS011;63567;49.956;20.130;2023-03-31T07:48:47;3.65;;;2.58;;
75012;SDS011;63567;49.956;20.130;2023-03-31T07:51:14;2.97;;;1.63;;
75012;SDS011;63567;49.956;20.130;2023-03-31T07:53:41;3.22;;;1.95;;
75012;SDS011;63567;49.956;20.130;2023-03-31T07:56:07;3.08;;;1.80;;
75012;SDS011;63567;49.956;20.130;2023-03-31T07:58:32;3.05;;;1.70;;
75012;SDS011;63567;49.956;20.130;2023-03-31T08:00:58;2.60;;;1.40;;
75012;SDS011;63567;49.956;20.130;2023-03-31T08:03:23;5.30;;;1.73;;
75012;SDS011;63567;49.956;20.130;2023-03-31T08:05:52;3.53;;;1.70;;
75012;SDS011;63567;49.956;20.130;2023-03-31T08:08:18;3.17;;;1.73;;
75012;SDS011;63567;49.956;20.130;2023-03-31T08:10:44;4.00;;;1.90;;
75012;SDS011;63567;49.956;20.130;2023-03-31T08:13:09;2.83;;;1.27;;
75012;SDS011;63567;49.956;20.130;2023-03-31T08:15:35;3.65;;;1.90;;
75012;SDS011;63567;49.956;20.130;2023-03-31T08:18:01;3.72;;;1.77;;
75012;SDS011;63567;49.956;20.130;2023-03-31T08:20:28;2.88;;;1.70;;
75012;SDS011;63567;49.956;20.130;2023-03-31T08:22:53;4.03;;;1.70;;
75012;SDS011;63567;49.956;20.130;2023-03-31T08:25:18;2.85;;;1.25;;
75012;SDS011;63567;49.956;20.130;2023-03-31T08:27:45;4.10;;;1.55;;
75012;SDS011;63567;49.956;20.130;2023-03-31T08:30:12;2.97;;;1.73;;
75012;SDS011;63567;49.956;20.130;2023-03-31T08:32:38;2.95;;;1.33;;
75012;SDS011;63567;49.956;20.130;2023-03-31T08:35:04;3.28;;;1.70;;
75012;SDS011;63567;49.956;20.130;2023-03-31T08:37:29;3.05;;;1.40;;
75012;SDS011;63567;49.956;20.130;2023-03-31T08:39:56;2.70;;;1.48;;
75012;SDS011;63567;49.956;20.130;2023-03-31T08:42:31;3.28;;;1.50;;
75012;SDS011;63567;49.956;20.130;2023-03-31T08:47:35;3.33;;;2.28;;
75012;SDS011;63567;49.956;20.130;2023-03-31T08:50:07;3.40;;;2.28;;
75012;SDS011;63567;49.956;20.130;2023-03-31T08:52:41;3.80;;;1.70;;
75012;SDS011;63567;49.956;20.130;2023-03-31T08:55:14;4.22;;;1.52;;
75012;SDS011;63567;49.956;20.130;2023-03-31T08:57:56;2.97;;;1.88;;
75012;SDS011;63567;49.956;20.130;2023-03-31T09:00:28;3.90;;;1.75;;
75012;SDS011;63567;49.956;20.130;2023-03-31T09:03:03;2.40;;;1.30;;
75012;SDS011;63567;49.956;20.130;2023-03-31T09:05:42;2.97;;;1.42;;
75012;SDS011;63567;49.956;20.130;2023-03-31T09:11:26;3.50;;;1.30;;
75012;SDS011;63567;49.956;20.130;2023-03-31T09:14:09;3.85;;;1.88;;
75012;SDS011;63567;49.956;20.130;2023-03-31T09:19:47;2.83;;;1.15;;
75012;SDS011;63567;49.956;20.130;2023-03-31T09:22:17;3.58;;;1.58;;
75012;SDS011;63567;49.956;20.130;2023-03-31T09:24:55;3.55;;;1.65;;
75012;SDS011;63567;49.956;20.130;2023-03-31T09:27:26;3.80;;;1.98;;
75012;SDS011;63567;49.956;20.130;2023-03-31T09:29:54;3.63;;;2.00;;
75012;SDS011;63567;49.956;20.130;2023-03-31T09:32:42;3.03;;;1.30;;
75012;SDS011;63567;49.956;20.130;2023-03-31T09:35:19;3.70;;;1.33;;
75012;SDS011;63567;49.956;20.130;2023-03-31T09:37:46;3.47;;;1.40;;
75012;SDS011;63567;49.956;20.130;2023-03-31T09:40:16;2.83;;;1.95;;
75012;SDS011;63567;49.956;20.130;2023-03-31T09:42:45;1.95;;;1.20;;
75012;SDS011;63567;49.956;20.130;2023-03-31T09:45:16;2.50;;;1.48;;
75012;SDS011;63567;49.956;20.130;2023-03-31T09:47:45;2.50;;;1.00;;
75012;SDS011;63567;49.956;20.130;2023-03-31T09:50:14;2.38;;;0.95;;
75012;SDS011;63567;49.956;20.130;2023-03-31T09:52:42;2.00;;;0.82;;
75012;SDS011;63567;49.956;20.130;2023-03-31T09:55:59;2.83;;;0.95;;
75012;SDS011;63567;49.956;20.130;2023-03-31T09:58:01;2.30;;;2.00;;
75012;SDS011;63567;49.956;20.130;2023-03-31T10:00:30;3.65;;;0.95;;
75012;SDS011;63567;49.956;20.130;2023-03-31T10:03:00;3.25;;;1.65;;
75012;SDS011;63567;49.956;20.130;2023-03-31T10:10:57;3.40;;;1.48;;
75012;SDS011;63567;49.956;20.130;2023-03-31T10:16:05;3.22;;;1.38;;
75012;SDS011;63567;49.956;20.130;2023-03-31T10:18:36;4.75;;;2.15;;
75012;SDS011;63567;49.956;20.130;2023-03-31T10:21:05;3.42;;;1.63;;
75012;SDS011;63567;49.956;20.130;2023-03-31T10:23:40;3.75;;;1.90;;
75012;SDS011;63567;49.956;20.130;2023-03-31T10:26:12;4.13;;;2.13;;
75012;SDS011;63567;49.956;20.130;2023-03-31T10:28:42;3.03;;;2.47;;
75012;SDS011;63567;49.956;20.130;2023-03-31T10:31:08;2.40;;;1.40;;
75012;SDS011;63567;49.956;20.130;2023-03-31T10:33:36;3.60;;;1.85;;
75012;SDS011;63567;49.956;20.130;2023-03-31T10:36:07;2.20;;;1.10;;
75012;SDS011;63567;49.956;20.130;2023-03-31T10:38:41;3.13;;;2.20;;
75012;SDS011;63567;49.956;20.130;2023-03-31T10:41:09;2.42;;;2.03;;
75012;SDS011;63567;49.956;20.130;2023-03-31T10:43:39;3.78;;;1.40;;
75012;SDS011;63567;49.956;20.130;2023-03-31T10:46:07;2.17;;;0.95;;
75012;SDS011;63567;49.956;20.130;2023-03-31T10:48:37;1.88;;;0.90;;
75012;SDS011;63567;49.956;20.130;2023-03-31T10:58:58;2.25;;;1.10;;
75012;SDS011;63567;49.956;20.130;2023-03-31T11:06:54;2.65;;;1.15;;
75012;SDS011;63567;49.956;20.130;2023-03-31T11:09:41;3.38;;;2.13;;
75012;SDS011;63567;49.956;20.130;2023-03-31T11:15:09;1.95;;;1.00;;
75012;SDS011;63567;49.956;20.130;2023-03-31T11:23:30;2.72;;;1.20;;
75012;SDS011;63567;49.956;20.130;2023-03-31T11:26:04;2.38;;;1.00;;
75012;SDS011;63567;49.956;20.130;2023-03-31T11:34:05;2.58;;;0.75;;
75012;SDS011;63567;49.956;20.130;2023-03-31T11:44:51;2.72;;;1.40;;
75012;SDS011;63567;49.956;20.130;2023-03-31T11:47:21;1.80;;;1.02;;
75012;SDS011;63567;49.956;20.130;2023-03-31T11:49:54;3.95;;;1.20;;
75012;SDS011;63567;49.956;20.130;2023-03-31T11:52:26;2.83;;;1.23;;
75012;SDS011;63567;49.956;20.130;2023-03-31T11:54:56;2.42;;;0.80;;
75012;SDS011;63567;49.956;20.130;2023-03-31T12:00:10;1.55;;;0.70;;
75012;SDS011;63567;49.956;20.130;2023-03-31T12:05:43;2.92;;;1.13;;
75012;SDS011;63567;49.956;20.130;2023-03-31T12:08:14;2.05;;;0.70;;
75012;SDS011;63567;49.956;20.130;2023-03-31T12:10:49;2.35;;;0.80;;
75012;SDS011;63567;49.956;20.130;2023-03-31T12:15:57;2.65;;;0.90;;
75012;SDS011;63567;49.956;20.130;2023-03-31T12:18:34;3.53;;;1.85;;
75012;SDS011;63567;49.956;20.130;2023-03-31T12:21:06;2.45;;;1.30;;
75012;SDS011;63567;49.956;20.130;2023-03-31T12:23:35;1.83;;;0.75;;
75012;SDS011;63567;49.956;20.130;2023-03-31T12:28:51;3.28;;;1.15;;
75012;SDS011;63567;49.956;20.130;2023-03-31T12:31:22;5.43;;;2.42;;
75012;SDS011;63567;49.956;20.130;2023-03-31T12:34:07;9.27;;;5.22;;
75012;SDS011;63567;49.956;20.130;2023-03-31T12:36:57;3.42;;;1.58;;
75012;SDS011;63567;49.956;20.130;2023-03-31T12:42:43;2.75;;;1.10;;
75012;SDS011;63567;49.956;20.130;2023-03-31T12:45:30;2.33;;;1.30;;
75012;SDS011;63567;49.956;20.130;2023-03-31T12:56:08;2.60;;;0.98;;
75012;SDS011;63567;49.956;20.130;2023-03-31T12:58:40;3.30;;;0.85;;
75012;SDS011;63567;49.956;20.130;2023-03-31T13:01:22;2.85;;;1.20;;
75012;SDS011;63567;49.956;20.130;2023-03-31T13:06:45;3.50;;;2.03;;
75012;SDS011;63567;49.956;20.130;2023-03-31T13:11:57;3.17;;;1.45;;
75012;SDS011;63567;49.956;20.130;2023-03-31T13:14:34;4.88;;;1.83;;
75012;SDS011;63567;49.956;20.130;2023-03-31T13:17:12;4.50;;;1.70;;
75012;SDS011;63567;49.956;20.130;2023-03-31T13:19:46;3.50;;;1.13;;
75012;SDS011;63567;49.956;20.130;2023-03-31T13:27:54;2.35;;;1.15;;
75012;SDS011;63567;49.956;20.130;2023-03-31T13:35:34;2.80;;;0.70;;
75012;SDS011;63567;49.956;20.130;2023-03-31T13:46:31;2.35;;;1.15;;
75012;SDS011;63567;49.956;20.130;2023-03-31T13:49:20;2.70;;;1.50;;
75012;SDS011;63567;49.956;20.130;2023-03-31T13:52:08;2.13;;;0.98;;
75012;SDS011;63567;49.956;20.130;2023-03-31T13:54:39;5.30;;;1.30;;
75012;SDS011;63567;49.956;20.130;2023-03-31T13:57:24;4.55;;;1.50;;
75012;SDS011;63567;49.956;20.130;2023-03-31T14:05:56;83.28;;;18.77;;
75012;SDS011;63567;49.956;20.130;2023-03-31T14:09:14;6.60;;;1.80;;
75012;SDS011;63567;49.956;20.130;2023-03-31T14:13:57;3.97;;;1.73;;
75012;SDS011;63567;49.956;20.130;2023-03-31T14:16:25;5.78;;;1.63;;
75012;SDS011;63567;49.956;20.130;2023-03-31T14:19:09;4.47;;;2.00;;
75012;SDS011;63567;49.956;20.130;2023-03-31T14:21:47;4.05;;;2.17;;
75012;SDS011;63567;49.956;20.130;2023-03-31T14:24:25;5.93;;;2.80;;
75012;SDS011;63567;49.956;20.130;2023-03-31T14:29:58;6.15;;;3.45;;
75012;SDS011;63567;49.956;20.130;2023-03-31T14:32:37;6.32;;;3.40;;
75012;SDS011;63567;49.956;20.130;2023-03-31T14:35:30;6.80;;;3.10;;
75012;SDS011;63567;49.956;20.130;2023-03-31T14:38:02;5.85;;;2.95;;
75012;SDS011;63567;49.956;20.130;2023-03-31T14:40:31;6.70;;;4.22;;
75012;SDS011;63567;49.956;20.130;2023-03-31T14:42:56;3.88;;;1.63;;
75012;SDS011;63567;49.956;20.130;2023-03-31T14:45:26;4.72;;;2.00;;
75012;SDS011;63567;49.956;20.130;2023-03-31T14:47:56;6.60;;;2.97;;
75012;SDS011;63567;49.956;20.130;2023-03-31T14:50:30;5.25;;;2.83;;
75012;SDS011;63567;49.956;20.130;2023-03-31T14:52:58;6.45;;;2.50;;
75012;SDS011;63567;49.956;20.130;2023-03-31T14:55:26;3.72;;;2.20;;
75012;SDS011;63567;49.956;20.130;2023-03-31T14:57:54;3.90;;;1.50;;
75012;SDS011;63567;49.956;20.130;2023-03-31T15:00:26;4.55;;;1.50;;
75012;SDS011;63567;49.956;20.130;2023-03-31T15:02:54;3.15;;;1.63;;
75012;SDS011;63567;49.956;20.130;2023-03-31T15:07:55;3.67;;;1.67;;
75012;SDS011;63567;49.956;20.130;2023-03-31T15:10:22;3.72;;;1.52;;
75012;SDS011;63567;49.956;20.130;2023-03-31T15:12:47;3.10;;;1.45;;
75012;SDS011;63567;49.956;20.130;2023-03-31T15:15:21;3.58;;;1.90;;
75012;SDS011;63567;49.956;20.130;2023-03-31T15:17:47;5.28;;;1.88;;
75012;SDS011;63567;49.956;20.130;2023-03-31T15:22:48;3.05;;;1.80;;
75012;SDS011;63567;49.956;20.130;2023-03-31T15:25:13;3.50;;;1.43;;
75012;SDS011;63567;49.956;20.130;2023-03-31T15:27:42;5.38;;;4.85;;
75012;SDS011;63567;49.956;20.130;2023-03-31T15:30:14;3.03;;;1.48;;
75012;SDS011;63567;49.956;20.130;2023-03-31T15:32:42;3.42;;;1.60;;
75012;SDS011;63567;49.956;20.130;2023-03-31T15:38:06;2.90;;;1.25;;
75012;SDS011;63567;49.956;20.130;2023-03-31T15:43:06;2.80;;;1.52;;
75012;SDS011;63567;49.956;20.130;2023-03-31T15:45:54;3.50;;;1.60;;
75012;SDS011;63567;49.956;20.130;2023-03-31T15:48:22;3.95;;;1.80;;
75012;SDS011;63567;49.956;20.130;2023-03-31T15:50:48;2.88;;;1.40;;
75012;SDS011;63567;49.956;20.130;2023-03-31T15:53:20;3.28;;;1.73;;
75012;SDS011;63567;49.956;20.130;2023-03-31T15:55:52;4.68;;;2.35;;
75012;SDS011;63567;49.956;20.130;2023-03-31T15:58:20;5.20;;;2.55;;
75012;SDS011;63567;49.956;20.130;2023-03-31T16:00:50;5.00;;;3.35;;
75012;SDS011;63567;49.956;20.130;2023-03-31T16:03:27;4.75;;;2.65;;
75012;SDS011;63567;49.956;20.130;2023-03-31T16:06:30;3.22;;;1.77;;
75012;SDS011;63567;49.956;20.130;2023-03-31T16:08:50;4.13;;;2.50;;
75012;SDS011;63567;49.956;20.130;2023-03-31T16:11:23;5.53;;;2.60;;
75012;SDS011;63567;49.956;20.130;2023-03-31T16:13:53;4.45;;;2.13;;
75012;SDS011;63567;49.956;20.130;2023-03-31T16:16:23;3.22;;;1.60;;
75012;SDS011;63567;49.956;20.130;2023-03-31T16:18:53;3.58;;;1.45;;
75012;SDS011;63567;49.956;20.130;2023-03-31T16:21:35;4.25;;;1.55;;
75012;SDS011;63567;49.956;20.130;2023-03-31T16:24:07;3.58;;;1.20;;
75012;SDS011;63567;49.956;20.130;2023-03-31T16:26:33;4.05;;;1.27;;
75012;SDS011;63567;49.956;20.130;2023-03-31T16:29:00;4.43;;;1.67;;
75012;SDS011;63567;49.956;20.130;2023-03-31T16:31:26;4.18;;;1.70;;
75012;SDS011;63567;49.956;20.130;2023-03-31T16:33:53;3.60;;;1.60;;
75012;SDS011;63567;49.956;20.130;2023-03-31T16:36:20;5.78;;;2.97;;
75012;SDS011;63567;49.956;20.130;2023-03-31T16:38:46;5.10;;;3.33;;
75012;SDS011;63567;49.956;20.130;2023-03-31T16:41:11;5.07;;;2.30;;
75012;SDS011;63567;49.956;20.130;2023-03-31T16:43:39;5.38;;;3.38;;
75012;SDS011;63567;49.956;20.130;2023-03-31T16:46:05;7.20;;;4.95;;
75012;SDS011;63567;49.956;20.130;2023-03-31T16:48:30;3.57;;;2.10;;
75012;SDS011;63567;49.956;20.130;2023-03-31T16:50:59;8.88;;;4.18;;
75012;SDS011;63567;49.956;20.130;2023-03-31T16:53:26;6.45;;;3.75;;
75012;SDS011;63567;49.956;20.130;2023-03-31T16:55:53;7.43;;;5.32;;
75012;SDS011;63567;49.956;20.130;2023-03-31T16:58:19;5.25;;;2.85;;
75012;SDS011;63567;49.956;20.130;2023-03-31T17:00:48;6.18;;;3.25;;
75012;SDS011;63567;49.956;20.130;2023-03-31T17:03:14;7.28;;;3.90;;
75012;SDS011;63567;49.956;20.130;2023-03-31T17:05:41;8.45;;;5.07;;
75012;SDS011;63567;49.956;20.130;2023-03-31T17:08:11;10.32;;;5.47;;
75012;SDS011;63567;49.956;20.130;2023-03-31T17:10:38;12.73;;;5.63;;
75012;SDS011;63567;49.956;20.130;2023-03-31T17:13:05;9.75;;;5.00;;
75012;SDS011;63567;49.956;20.130;2023-03-31T17:15:31;6.85;;;3.50;;
75012;SDS011;63567;49.956;20.130;2023-03-31T17:17:58;7.68;;;3.78;;
75012;SDS011;63567;49.956;20.130;2023-03-31T17:20:24;9.13;;;5.10;;
75012;SDS011;63567;49.956;20.130;2023-03-31T17:22:50;5.75;;;3.13;;
75012;SDS011;63567;49.956;20.130;2023-03-31T17:25:15;5.13;;;3.00;;
75012;SDS011;63567;49.956;20.130;2023-03-31T17:27:42;6.53;;;4.05;;
75012;SDS011;63567;49.956;20.130;2023-03-31T17:30:09;8.02;;;4.38;;
75012;SDS011;63567;49.956;20.130;2023-03-31T17:32:35;4.45;;;3.08;;
75012;SDS011;63567;49.956;20.130;2023-03-31T17:35:01;6.40;;;3.60;;
75012;SDS011;63567;49.956;20.130;2023-03-31T17:37:27;7.47;;;4.00;;
75012;SDS011;63567;49.956;20.130;2023-03-31T17:39:52;8.15;;;5.40;;
75012;SDS011;63567;49.956;20.130;2023-03-31T17:42:19;6.40;;;3.78;;
75012;SDS011;63567;49.956;20.130;2023-03-31T17:44:44;8.95;;;5.03;;
75012;SDS011;63567;49.956;20.130;2023-03-31T17:47:11;7.68;;;5.03;;
75012;SDS011;63567;49.956;20.130;2023-03-31T17:49:37;8.30;;;4.95;;
75012;SDS011;63567;49.956;20.130;2023-03-31T17:52:03;9.00;;;5.55;;
75012;SDS011;63567;49.956;20.130;2023-03-31T17:54:28;8.98;;;5.20;;
75012;SDS011;63567;49.956;20.130;2023-03-31T17:56:54;8.20;;;4.50;;